Terminal Aerodrome Forecast
Issued by NWS Sioux Falls, SD

Home | Current Version | Previous Version | Graphics & Text | Print | Product List | Glossary On
Versions: 1 2 3 4 5 6 7 8 9 10 11 12 13 14 15
000
FTUS43 KFSD 231122
TAFFSD
TAF
KFSD 231122Z 2312/2412 33011G17KT P6SM OVC008
     FM231400 33007KT P6SM OVC003
     FM231700 30005KT P6SM OVC008
     FM232000 27005KT P6SM BKN015 OVC110
     FM232200 26005KT P6SM SCT015 BKN100
     FM240500 29005KT P6SM SCT100=

USA.gov is the U.S. government's official web portal to all federal, state and local government web resources and services.